sensor_id;sensor_type;location;lat;lon;timestamp;P1;durP1;ratioP1;P2;durP2;ratioP2
6735;SDS011;3405;50.576;12.364;2023-04-16T00:01:40;118.25;;;105.30;;
6735;SDS011;3405;50.576;12.364;2023-04-16T00:04:06;117.78;;;103.55;;
6735;SDS011;3405;50.576;12.364;2023-04-16T00:06:31;113.60;;;101.13;;
6735;SDS011;3405;50.576;12.364;2023-04-16T00:08:57;112.28;;;98.43;;
6735;SDS011;3405;50.576;12.364;2023-04-16T00:11:23;107.88;;;95.85;;
6735;SDS011;3405;50.576;12.364;2023-04-16T00:13:49;104.22;;;92.25;;
6735;SDS011;3405;50.576;12.364;2023-04-16T00:16:15;104.00;;;92.40;;
6735;SDS011;3405;50.576;12.364;2023-04-16T00:18:41;99.28;;;88.40;;
6735;SDS011;3405;50.576;12.364;2023-04-16T00:21:07;96.47;;;85.82;;
6735;SDS011;3405;50.576;12.364;2023-04-16T00:23:33;93.95;;;81.85;;
6735;SDS011;3405;50.576;12.364;2023-04-16T00:25:59;95.47;;;83.13;;
6735;SDS011;3405;50.576;12.364;2023-04-16T00:28:25;91.07;;;81.10;;
6735;SDS011;3405;50.576;12.364;2023-04-16T00:30:51;88.57;;;78.88;;
6735;SDS011;3405;50.576;12.364;2023-04-16T00:33:17;88.13;;;78.50;;
6735;SDS011;3405;50.576;12.364;2023-04-16T00:35:44;85.85;;;75.72;;
6735;SDS011;3405;50.576;12.364;2023-04-16T00:38:10;84.43;;;74.85;;
6735;SDS011;3405;50.576;12.364;2023-04-16T00:40:36;81.07;;;71.65;;
6735;SDS011;3405;50.576;12.364;2023-04-16T00:43:02;80.78;;;70.65;;
6735;SDS011;3405;50.576;12.364;2023-04-16T00:45:28;79.95;;;69.85;;
6735;SDS011;3405;50.576;12.364;2023-04-16T00:47:54;75.13;;;66.80;;
6735;SDS011;3405;50.576;12.364;2023-04-16T00:50:21;71.55;;;63.72;;
6735;SDS011;3405;50.576;12.364;2023-04-16T00:52:47;72.63;;;64.60;;
6735;SDS011;3405;50.576;12.364;2023-04-16T00:55:13;72.53;;;63.28;;
6735;SDS011;3405;50.576;12.364;2023-04-16T00:57:41;71.72;;;61.67;;
6735;SDS011;3405;50.576;12.364;2023-04-16T01:00:07;67.65;;;59.70;;
6735;SDS011;3405;50.576;12.364;2023-04-16T01:02:34;66.25;;;58.95;;
6735;SDS011;3405;50.576;12.364;2023-04-16T01:05:00;63.65;;;56.53;;
6735;SDS011;3405;50.576;12.364;2023-04-16T01:07:27;64.43;;;57.05;;
6735;SDS011;3405;50.576;12.364;2023-04-16T01:09:52;62.83;;;55.63;;
6735;SDS011;3405;50.576;12.364;2023-04-16T01:12:19;60.10;;;53.60;;
6735;SDS011;3405;50.576;12.364;2023-04-16T01:14:45;60.63;;;53.95;;
6735;SDS011;3405;50.576;12.364;2023-04-16T01:17:10;59.97;;;53.42;;
6735;SDS011;3405;50.576;12.364;2023-04-16T01:19:36;58.55;;;51.78;;
6735;SDS011;3405;50.576;12.364;2023-04-16T01:22:03;55.40;;;49.40;;
6735;SDS011;3405;50.576;12.364;2023-04-16T01:24:29;55.65;;;48.80;;
6735;SDS011;3405;50.576;12.364;2023-04-16T01:26:56;54.90;;;48.85;;
6735;SDS011;3405;50.576;12.364;2023-04-16T01:29:23;54.58;;;48.40;;
6735;SDS011;3405;50.576;12.364;2023-04-16T01:31:49;53.38;;;47.65;;
6735;SDS011;3405;50.576;12.364;2023-04-16T01:34:15;52.97;;;46.70;;
6735;SDS011;3405;50.576;12.364;2023-04-16T01:36:40;49.90;;;44.15;;
6735;SDS011;3405;50.576;12.364;2023-04-16T01:39:06;51.28;;;45.40;;
6735;SDS011;3405;50.576;12.364;2023-04-16T01:41:35;50.50;;;45.00;;
6735;SDS011;3405;50.576;12.364;2023-04-16T01:44:01;51.13;;;44.75;;
6735;SDS011;3405;50.576;12.364;2023-04-16T01:46:27;47.30;;;42.17;;
6735;SDS011;3405;50.576;12.364;2023-04-16T01:48:53;49.30;;;44.03;;
6735;SDS011;3405;50.576;12.364;2023-04-16T01:51:20;47.15;;;42.13;;
6735;SDS011;3405;50.576;12.364;2023-04-16T01:53:46;45.42;;;40.42;;
6735;SDS011;3405;50.576;12.364;2023-04-16T01:56:12;46.17;;;41.28;;
6735;SDS011;3405;50.576;12.364;2023-04-16T01:58:38;45.83;;;40.90;;
6735;SDS011;3405;50.576;12.364;2023-04-16T02:01:05;44.35;;;39.58;;
6735;SDS011;3405;50.576;12.364;2023-04-16T02:03:31;43.17;;;38.55;;
6735;SDS011;3405;50.576;12.364;2023-04-16T02:05:57;44.88;;;39.97;;
6735;SDS011;3405;50.576;12.364;2023-04-16T02:08:23;41.38;;;36.97;;
6735;SDS011;3405;50.576;12.364;2023-04-16T02:10:49;41.60;;;36.28;;
6735;SDS011;3405;50.576;12.364;2023-04-16T02:13:15;40.72;;;36.35;;
6735;SDS011;3405;50.576;12.364;2023-04-16T02:15:48;40.03;;;35.67;;
6735;SDS011;3405;50.576;12.364;2023-04-16T02:18:14;38.30;;;34.13;;
6735;SDS011;3405;50.576;12.364;2023-04-16T02:20:40;38.97;;;34.75;;
6735;SDS011;3405;50.576;12.364;2023-04-16T02:23:07;37.20;;;33.30;;
6735;SDS011;3405;50.576;12.364;2023-04-16T02:25:37;38.83;;;34.05;;
6735;SDS011;3405;50.576;12.364;2023-04-16T02:28:04;36.45;;;32.65;;
6735;SDS011;3405;50.576;12.364;2023-04-16T02:30:30;37.38;;;33.47;;
6735;SDS011;3405;50.576;12.364;2023-04-16T02:32:58;34.63;;;30.95;;
6735;SDS011;3405;50.576;12.364;2023-04-16T02:35:25;36.50;;;32.60;;
6735;SDS011;3405;50.576;12.364;2023-04-16T02:37:51;34.38;;;30.67;;
6735;SDS011;3405;50.576;12.364;2023-04-16T02:40:18;33.50;;;29.92;;
6735;SDS011;3405;50.576;12.364;2023-04-16T02:42:44;34.13;;;30.45;;
6735;SDS011;3405;50.576;12.364;2023-04-16T02:45:10;32.33;;;28.98;;
6735;SDS011;3405;50.576;12.364;2023-04-16T02:47:36;31.75;;;28.38;;
6735;SDS011;3405;50.576;12.364;2023-04-16T02:50:02;33.05;;;29.50;;
6735;SDS011;3405;50.576;12.364;2023-04-16T02:52:28;30.67;;;27.48;;
6735;SDS011;3405;50.576;12.364;2023-04-16T02:54:56;32.25;;;28.80;;
6735;SDS011;3405;50.576;12.364;2023-04-16T02:57:22;30.55;;;27.35;;
6735;SDS011;3405;50.576;12.364;2023-04-16T02:59:47;29.40;;;26.20;;
6735;SDS011;3405;50.576;12.364;2023-04-16T03:02:13;29.73;;;26.55;;
6735;SDS011;3405;50.576;12.364;2023-04-16T03:04:40;29.90;;;26.70;;
6735;SDS011;3405;50.576;12.364;2023-04-16T03:07:06;28.30;;;25.38;;
6735;SDS011;3405;50.576;12.364;2023-04-16T03:09:33;28.35;;;25.35;;
6735;SDS011;3405;50.576;12.364;2023-04-16T03:11:59;28.77;;;25.67;;
6735;SDS011;3405;50.576;12.364;2023-04-16T03:14:26;26.17;;;23.38;;
6735;SDS011;3405;50.576;12.364;2023-04-16T03:16:52;28.52;;;25.52;;
6735;SDS011;3405;50.576;12.364;2023-04-16T03:19:18;25.77;;;23.08;;
6735;SDS011;3405;50.576;12.364;2023-04-16T03:21:44;26.40;;;23.63;;
6735;SDS011;3405;50.576;12.364;2023-04-16T03:24:09;26.40;;;23.48;;
6735;SDS011;3405;50.576;12.364;2023-04-16T03:26:35;25.80;;;23.02;;
6735;SDS011;3405;50.576;12.364;2023-04-16T03:29:01;26.48;;;23.77;;
6735;SDS011;3405;50.576;12.364;2023-04-16T03:31:27;25.10;;;22.45;;
6735;SDS011;3405;50.576;12.364;2023-04-16T03:33:53;25.52;;;22.83;;
6735;SDS011;3405;50.576;12.364;2023-04-16T03:36:19;25.17;;;22.48;;
6735;SDS011;3405;50.576;12.364;2023-04-16T03:38:46;26.38;;;23.60;;
6735;SDS011;3405;50.576;12.364;2023-04-16T03:41:12;24.42;;;21.83;;
6735;SDS011;3405;50.576;12.364;2023-04-16T03:43:39;24.50;;;22.00;;
6735;SDS011;3405;50.576;12.364;2023-04-16T03:46:05;23.90;;;21.50;;
6735;SDS011;3405;50.576;12.364;2023-04-16T03:48:31;24.40;;;21.80;;
6735;SDS011;3405;50.576;12.364;2023-04-16T03:50:57;23.30;;;20.88;;
6735;SDS011;3405;50.576;12.364;2023-04-16T03:53:23;22.60;;;19.83;;
6735;SDS011;3405;50.576;12.364;2023-04-16T03:55:49;22.25;;;19.88;;
6735;SDS011;3405;50.576;12.364;2023-04-16T03:58:16;22.13;;;19.85;;
6735;SDS011;3405;50.576;12.364;2023-04-16T04:00:41;21.17;;;18.98;;
6735;SDS011;3405;50.576;12.364;2023-04-16T04:03:11;20.60;;;18.50;;
6735;SDS011;3405;50.576;12.364;2023-04-16T04:05:38;20.92;;;18.73;;
6735;SDS011;3405;50.576;12.364;2023-04-16T04:08:04;20.10;;;18.05;;
6735;SDS011;3405;50.576;12.364;2023-04-16T04:10:31;21.13;;;18.95;;
6735;SDS011;3405;50.576;12.364;2023-04-16T04:12:57;19.50;;;17.50;;
6735;SDS011;3405;50.576;12.364;2023-04-16T04:15:23;19.25;;;17.25;;
6735;SDS011;3405;50.576;12.364;2023-04-16T04:17:49;20.65;;;14.93;;
6735;SDS011;3405;50.576;12.364;2023-04-16T04:20:15;15.15;;;13.05;;
6735;SDS011;3405;50.576;12.364;2023-04-16T04:22:40;17.70;;;13.35;;
6735;SDS011;3405;50.576;12.364;2023-04-16T04:25:07;15.43;;;12.13;;
6735;SDS011;3405;50.576;12.364;2023-04-16T04:27:33;18.35;;;11.73;;
6735;SDS011;3405;50.576;12.364;2023-04-16T04:29:59;12.50;;;10.52;;
6735;SDS011;3405;50.576;12.364;2023-04-16T04:32:25;15.55;;;10.40;;
6735;SDS011;3405;50.576;12.364;2023-04-16T04:34:51;17.05;;;11.80;;
6735;SDS011;3405;50.576;12.364;2023-04-16T04:37:17;15.95;;;10.55;;
6735;SDS011;3405;50.576;12.364;2023-04-16T04:39:42;12.98;;;10.30;;
6735;SDS011;3405;50.576;12.364;2023-04-16T04:42:08;13.52;;;9.68;;
6735;SDS011;3405;50.576;12.364;2023-04-16T04:44:34;14.77;;;10.07;;
6735;SDS011;3405;50.576;12.364;2023-04-16T04:47:00;15.30;;;10.35;;
6735;SDS011;3405;50.576;12.364;2023-04-16T04:49:26;11.52;;;8.55;;
6735;SDS011;3405;50.576;12.364;2023-04-16T04:51:52;15.15;;;9.30;;
6735;SDS011;3405;50.576;12.364;2023-04-16T04:54:18;13.25;;;9.45;;
6735;SDS011;3405;50.576;12.364;2023-04-16T04:56:44;11.82;;;8.95;;
6735;SDS011;3405;50.576;12.364;2023-04-16T04:59:10;13.50;;;9.43;;
6735;SDS011;3405;50.576;12.364;2023-04-16T05:01:36;12.98;;;8.30;;
6735;SDS011;3405;50.576;12.364;2023-04-16T05:04:02;12.77;;;8.40;;
6735;SDS011;3405;50.576;12.364;2023-04-16T05:06:28;23.98;;;18.48;;
6735;SDS011;3405;50.576;12.364;2023-04-16T05:08:55;31.65;;;22.65;;
6735;SDS011;3405;50.576;12.364;2023-04-16T05:11:21;20.77;;;18.27;;
6735;SDS011;3405;50.576;12.364;2023-04-16T05:13:47;24.83;;;17.13;;
6735;SDS011;3405;50.576;12.364;2023-04-16T05:16:12;20.33;;;16.88;;
6735;SDS011;3405;50.576;12.364;2023-04-16T05:18:38;22.55;;;14.80;;
6735;SDS011;3405;50.576;12.364;2023-04-16T05:21:04;18.65;;;14.10;;
6735;SDS011;3405;50.576;12.364;2023-04-16T05:23:30;18.05;;;13.82;;
6735;SDS011;3405;50.576;12.364;2023-04-16T05:25:56;21.17;;;14.50;;
6735;SDS011;3405;50.576;12.364;2023-04-16T05:28:22;18.08;;;13.43;;
6735;SDS011;3405;50.576;12.364;2023-04-16T05:30:48;18.90;;;13.25;;
6735;SDS011;3405;50.576;12.364;2023-04-16T05:33:14;18.98;;;12.48;;
6735;SDS011;3405;50.576;12.364;2023-04-16T05:35:40;23.00;;;13.10;;
6735;SDS011;3405;50.576;12.364;2023-04-16T05:38:06;20.33;;;12.80;;
6735;SDS011;3405;50.576;12.364;2023-04-16T05:40:32;24.17;;;11.85;;
6735;SDS011;3405;50.576;12.364;2023-04-16T05:42:58;16.95;;;10.80;;
6735;SDS011;3405;50.576;12.364;2023-04-16T05:45:23;21.33;;;10.20;;
6735;SDS011;3405;50.576;12.364;2023-04-16T05:47:49;23.13;;;10.75;;
6735;SDS011;3405;50.576;12.364;2023-04-16T05:50:15;13.77;;;9.13;;
6735;SDS011;3405;50.576;12.364;2023-04-16T05:52:41;16.77;;;9.43;;
6735;SDS011;3405;50.576;12.364;2023-04-16T05:55:07;15.63;;;8.63;;
6735;SDS011;3405;50.576;12.364;2023-04-16T05:57:33;15.00;;;8.45;;
6735;SDS011;3405;50.576;12.364;2023-04-16T05:59:59;16.25;;;8.60;;
6735;SDS011;3405;50.576;12.364;2023-04-16T06:02:25;11.40;;;7.95;;
6735;SDS011;3405;50.576;12.364;2023-04-16T06:04:51;12.68;;;7.60;;
6735;SDS011;3405;50.576;12.364;2023-04-16T06:07:17;10.38;;;7.18;;
6735;SDS011;3405;50.576;12.364;2023-04-16T06:09:43;9.77;;;7.32;;
6735;SDS011;3405;50.576;12.364;2023-04-16T06:12:09;9.18;;;6.63;;
6735;SDS011;3405;50.576;12.364;2023-04-16T06:14:35;12.63;;;6.80;;
6735;SDS011;3405;50.576;12.364;2023-04-16T06:17:01;136.20;;;48.15;;
6735;SDS011;3405;50.576;12.364;2023-04-16T06:19:27;140.70;;;50.88;;
6735;SDS011;3405;50.576;12.364;2023-04-16T06:21:53;117.60;;;38.95;;
6735;SDS011;3405;50.576;12.364;2023-04-16T06:24:19;73.82;;;30.27;;
6735;SDS011;3405;50.576;12.364;2023-04-16T06:26:45;59.13;;;24.67;;
6735;SDS011;3405;50.576;12.364;2023-04-16T06:29:11;46.95;;;20.45;;
6735;SDS011;3405;50.576;12.364;2023-04-16T06:31:37;35.75;;;18.23;;
6735;SDS011;3405;50.576;12.364;2023-04-16T06:34:03;35.88;;;15.75;;
6735;SDS011;3405;50.576;12.364;2023-04-16T06:36:28;33.83;;;14.77;;
6735;SDS011;3405;50.576;12.364;2023-04-16T06:38:55;27.00;;;13.85;;
6735;SDS011;3405;50.576;12.364;2023-04-16T06:41:21;27.35;;;12.80;;
6735;SDS011;3405;50.576;12.364;2023-04-16T06:43:49;28.17;;;13.18;;
6735;SDS011;3405;50.576;12.364;2023-04-16T06:46:15;31.88;;;12.55;;
6735;SDS011;3405;50.576;12.364;2023-04-16T06:48:41;26.50;;;12.77;;
6735;SDS011;3405;50.576;12.364;2023-04-16T06:51:07;28.20;;;11.50;;
6735;SDS011;3405;50.576;12.364;2023-04-16T06:53:33;23.45;;;10.65;;
6735;SDS011;3405;50.576;12.364;2023-04-16T06:56:01;21.83;;;11.18;;
6735;SDS011;3405;50.576;12.364;2023-04-16T06:58:27;19.55;;;10.77;;
6735;SDS011;3405;50.576;12.364;2023-04-16T07:00:53;20.13;;;10.52;;
6735;SDS011;3405;50.576;12.364;2023-04-16T07:03:19;25.08;;;9.93;;
6735;SDS011;3405;50.576;12.364;2023-04-16T07:05:45;18.63;;;9.95;;
6735;SDS011;3405;50.576;12.364;2023-04-16T07:08:11;23.35;;;9.80;;
6735;SDS011;3405;50.576;12.364;2023-04-16T07:10:37;20.73;;;9.80;;
6735;SDS011;3405;50.576;12.364;2023-04-16T07:13:03;18.48;;;9.10;;
6735;SDS011;3405;50.576;12.364;2023-04-16T07:15:28;16.60;;;9.38;;
6735;SDS011;3405;50.576;12.364;2023-04-16T07:17:54;18.60;;;9.68;;
6735;SDS011;3405;50.576;12.364;2023-04-16T07:20:20;18.83;;;9.07;;
6735;SDS011;3405;50.576;12.364;2023-04-16T07:22:46;16.05;;;8.38;;
6735;SDS011;3405;50.576;12.364;2023-04-16T07:25:12;17.55;;;8.40;;
6735;SDS011;3405;50.576;12.364;2023-04-16T07:27:38;15.32;;;8.07;;
6735;SDS011;3405;50.576;12.364;2023-04-16T07:30:04;16.13;;;7.53;;
6735;SDS011;3405;50.576;12.364;2023-04-16T07:32:30;13.32;;;7.35;;
6735;SDS011;3405;50.576;12.364;2023-04-16T07:34:56;14.48;;;7.45;;
6735;SDS011;3405;50.576;12.364;2023-04-16T07:37:22;13.85;;;7.53;;
6735;SDS011;3405;50.576;12.364;2023-04-16T07:39:48;14.02;;;7.78;;
6735;SDS011;3405;50.576;12.364;2023-04-16T07:42:15;13.95;;;7.30;;
6735;SDS011;3405;50.576;12.364;2023-04-16T07:44:41;11.55;;;6.78;;
6735;SDS011;3405;50.576;12.364;2023-04-16T07:47:07;11.20;;;6.78;;
6735;SDS011;3405;50.576;12.364;2023-04-16T07:49:33;14.80;;;7.50;;
6735;SDS011;3405;50.576;12.364;2023-04-16T07:51:59;11.98;;;6.57;;
6735;SDS011;3405;50.576;12.364;2023-04-16T07:54:25;11.07;;;6.47;;
6735;SDS011;3405;50.576;12.364;2023-04-16T07:56:51;12.70;;;6.15;;
6735;SDS011;3405;50.576;12.364;2023-04-16T07:59:16;12.23;;;6.85;;
6735;SDS011;3405;50.576;12.364;2023-04-16T08:01:43;10.05;;;6.38;;
6735;SDS011;3405;50.576;12.364;2023-04-16T08:04:08;13.65;;;6.45;;
6735;SDS011;3405;50.576;12.364;2023-04-16T08:06:34;10.07;;;5.70;;
6735;SDS011;3405;50.576;12.364;2023-04-16T08:09:00;10.65;;;6.05;;
6735;SDS011;3405;50.576;12.364;2023-04-16T08:11:26;9.27;;;5.68;;
6735;SDS011;3405;50.576;12.364;2023-04-16T08:13:52;8.82;;;6.05;;
6735;SDS011;3405;50.576;12.364;2023-04-16T08:16:18;10.73;;;5.65;;
6735;SDS011;3405;50.576;12.364;2023-04-16T08:18:44;11.43;;;5.97;;
6735;SDS011;3405;50.576;12.364;2023-04-16T08:21:13;8.93;;;5.82;;
6735;SDS011;3405;50.576;12.364;2023-04-16T08:23:39;9.68;;;5.43;;
6735;SDS011;3405;50.576;12.364;2023-04-16T08:26:05;7.68;;;4.95;;
6735;SDS011;3405;50.576;12.364;2023-04-16T08:28:31;9.75;;;4.88;;
6735;SDS011;3405;50.576;12.364;2023-04-16T08:30:57;9.77;;;5.38;;
6735;SDS011;3405;50.576;12.364;2023-04-16T08:33:23;9.40;;;4.97;;
6735;SDS011;3405;50.576;12.364;2023-04-16T08:35:49;8.35;;;5.20;;
6735;SDS011;3405;50.576;12.364;2023-04-16T08:38:15;8.30;;;5.45;;
6735;SDS011;3405;50.576;12.364;2023-04-16T08:40:41;7.35;;;4.38;;
6735;SDS011;3405;50.576;12.364;2023-04-16T08:43:10;6.20;;;4.40;;
6735;SDS011;3405;50.576;12.364;2023-04-16T08:45:37;6.95;;;4.45;;
6735;SDS011;3405;50.576;12.364;2023-04-16T08:48:06;8.05;;;4.97;;
6735;SDS011;3405;50.576;12.364;2023-04-16T08:50:32;7.68;;;4.63;;
6735;SDS011;3405;50.576;12.364;2023-04-16T08:52:59;5.60;;;4.15;;
6735;SDS011;3405;50.576;12.364;2023-04-16T08:58:00;8.00;;;4.50;;
6735;SDS011;3405;50.576;12.364;2023-04-16T09:00:28;7.35;;;4.15;;
6735;SDS011;3405;50.576;12.364;2023-04-16T09:02:56;5.63;;;4.03;;
6735;SDS011;3405;50.576;12.364;2023-04-16T09:05:22;7.82;;;4.28;;
6735;SDS011;3405;50.576;12.364;2023-04-16T09:07:50;5.22;;;3.97;;
6735;SDS011;3405;50.576;12.364;2023-04-16T09:10:16;6.32;;;4.47;;
6735;SDS011;3405;50.576;12.364;2023-04-16T09:12:43;6.45;;;4.47;;
6735;SDS011;3405;50.576;12.364;2023-04-16T09:15:09;5.63;;;4.57;;
6735;SDS011;3405;50.576;12.364;2023-04-16T09:17:36;7.45;;;4.28;;
6735;SDS011;3405;50.576;12.364;2023-04-16T09:20:02;5.30;;;4.25;;
6735;SDS011;3405;50.576;12.364;2023-04-16T09:22:29;5.85;;;3.83;;
6735;SDS011;3405;50.576;12.364;2023-04-16T09:24:55;5.50;;;3.90;;
6735;SDS011;3405;50.576;12.364;2023-04-16T09:27:21;5.70;;;3.65;;
6735;SDS011;3405;50.576;12.364;2023-04-16T09:29:48;4.85;;;4.10;;
6735;SDS011;3405;50.576;12.364;2023-04-16T09:32:14;4.93;;;3.80;;
6735;SDS011;3405;50.576;12.364;2023-04-16T09:34:59;6.07;;;3.83;;
6735;SDS011;3405;50.576;12.364;2023-04-16T09:37:29;6.78;;;3.80;;
6735;SDS011;3405;50.576;12.364;2023-04-16T09:40:02;5.07;;;3.55;;
6735;SDS011;3405;50.576;12.364;2023-04-16T09:42:28;4.90;;;3.50;;
6735;SDS011;3405;50.576;12.364;2023-04-16T09:44:55;4.78;;;3.70;;
6735;SDS011;3405;50.576;12.364;2023-04-16T09:47:22;4.85;;;3.47;;
6735;SDS011;3405;50.576;12.364;2023-04-16T09:49:48;5.13;;;3.42;;
6735;SDS011;3405;50.576;12.364;2023-04-16T09:52:14;5.00;;;3.28;;
6735;SDS011;3405;50.576;12.364;2023-04-16T09:54:50;4.53;;;3.15;;
6735;SDS011;3405;50.576;12.364;2023-04-16T09:57:20;4.63;;;3.30;;
6735;SDS011;3405;50.576;12.364;2023-04-16T09:59:47;4.80;;;3.08;;
6735;SDS011;3405;50.576;12.364;2023-04-16T10:02:13;4.40;;;2.90;;
6735;SDS011;3405;50.576;12.364;2023-04-16T10:04:48;3.72;;;3.10;;
6735;SDS011;3405;50.576;12.364;2023-04-16T10:07:14;4.45;;;2.80;;
6735;SDS011;3405;50.576;12.364;2023-04-16T10:09:41;4.25;;;3.17;;
6735;SDS011;3405;50.576;12.364;2023-04-16T10:12:07;4.53;;;2.97;;
6735;SDS011;3405;50.576;12.364;2023-04-16T10:14:33;3.63;;;2.92;;
6735;SDS011;3405;50.576;12.364;2023-04-16T10:16:59;3.75;;;2.95;;
6735;SDS011;3405;50.576;12.364;2023-04-16T10:19:26;3.58;;;2.80;;
6735;SDS011;3405;50.576;12.364;2023-04-16T10:21:52;4.88;;;3.20;;
6735;SDS011;3405;50.576;12.364;2023-04-16T10:24:19;3.55;;;2.85;;
6735;SDS011;3405;50.576;12.364;2023-04-16T10:26:45;3.38;;;2.50;;
6735;SDS011;3405;50.576;12.364;2023-04-16T10:29:12;4.57;;;2.63;;
6735;SDS011;3405;50.576;12.364;2023-04-16T10:31:38;3.63;;;3.00;;
6735;SDS011;3405;50.576;12.364;2023-04-16T10:34:04;5.60;;;2.92;;
6735;SDS011;3405;50.576;12.364;2023-04-16T10:36:34;4.30;;;2.97;;
6735;SDS011;3405;50.576;12.364;2023-04-16T10:39:00;3.35;;;2.65;;
6735;SDS011;3405;50.576;12.364;2023-04-16T10:41:26;2.58;;;2.33;;
6735;SDS011;3405;50.576;12.364;2023-04-16T10:43:54;3.25;;;2.63;;
6735;SDS011;3405;50.576;12.364;2023-04-16T10:46:30;4.18;;;2.63;;
6735;SDS011;3405;50.576;12.364;2023-04-16T10:48:59;3.05;;;2.35;;
6735;SDS011;3405;50.576;12.364;2023-04-16T10:53:53;4.57;;;2.85;;
6735;SDS011;3405;50.576;12.364;2023-04-16T10:56:25;5.18;;;2.58;;
6735;SDS011;3405;50.576;12.364;2023-04-16T10:58:52;3.15;;;2.25;;
6735;SDS011;3405;50.576;12.364;2023-04-16T11:01:25;4.25;;;2.20;;
6735;SDS011;3405;50.576;12.364;2023-04-16T11:03:51;5.55;;;3.10;;
6735;SDS011;3405;50.576;12.364;2023-04-16T11:06:23;10.57;;;4.38;;
6735;SDS011;3405;50.576;12.364;2023-04-16T11:08:50;23.55;;;7.65;;
6735;SDS011;3405;50.576;12.364;2023-04-16T11:11:19;27.02;;;6.88;;
6735;SDS011;3405;50.576;12.364;2023-04-16T11:13:45;26.48;;;8.07;;
6735;SDS011;3405;50.576;12.364;2023-04-16T11:16:12;33.00;;;7.72;;
6735;SDS011;3405;50.576;12.364;2023-04-16T11:18:38;24.80;;;6.72;;
6735;SDS011;3405;50.576;12.364;2023-04-16T11:21:08;23.33;;;7.10;;
6735;SDS011;3405;50.576;12.364;2023-04-16T11:23:47;19.25;;;6.85;;
6735;SDS011;3405;50.576;12.364;2023-04-16T11:26:23;17.08;;;5.78;;
6735;SDS011;3405;50.576;12.364;2023-04-16T11:28:49;16.83;;;5.75;;
6735;SDS011;3405;50.576;12.364;2023-04-16T11:31:15;16.60;;;5.40;;
6735;SDS011;3405;50.576;12.364;2023-04-16T11:33:41;13.95;;;5.28;;
6735;SDS011;3405;50.576;12.364;2023-04-16T11:36:07;14.15;;;5.07;;
6735;SDS011;3405;50.576;12.364;2023-04-16T11:38:37;14.82;;;4.70;;
6735;SDS011;3405;50.576;12.364;2023-04-16T11:41:05;13.05;;;5.28;;
6735;SDS011;3405;50.576;12.364;2023-04-16T11:43:31;14.65;;;4.90;;
6735;SDS011;3405;50.576;12.364;2023-04-16T11:48:44;12.95;;;4.30;;
6735;SDS011;3405;50.576;12.364;2023-04-16T11:51:11;14.00;;;4.55;;
6735;SDS011;3405;50.576;12.364;2023-04-16T11:53:44;16.85;;;4.68;;
6735;SDS011;3405;50.576;12.364;2023-04-16T11:56:10;11.55;;;4.22;;
6735;SDS011;3405;50.576;12.364;2023-04-16T11:58:36;16.15;;;5.30;;
6735;SDS011;3405;50.576;12.364;2023-04-16T12:01:02;19.52;;;6.40;;
6735;SDS011;3405;50.576;12.364;2023-04-16T12:03:41;15.77;;;6.53;;
6735;SDS011;3405;50.576;12.364;2023-04-16T12:06:10;14.90;;;6.90;;
6735;SDS011;3405;50.576;12.364;2023-04-16T12:08:36;19.98;;;7.35;;
6735;SDS011;3405;50.576;12.364;2023-04-16T12:11:02;19.90;;;7.03;;
6735;SDS011;3405;50.576;12.364;2023-04-16T12:13:28;20.77;;;7.63;;
6735;SDS011;3405;50.576;12.364;2023-04-16T12:15:55;18.30;;;6.47;;
6735;SDS011;3405;50.576;12.364;2023-04-16T12:18:24;14.73;;;6.70;;
6735;SDS011;3405;50.576;12.364;2023-04-16T12:20:53;20.35;;;6.22;;
6735;SDS011;3405;50.576;12.364;2023-04-16T12:23:26;16.63;;;6.13;;
6735;SDS011;3405;50.576;12.364;2023-04-16T12:25:52;12.90;;;5.30;;
6735;SDS011;3405;50.576;12.364;2023-04-16T12:28:28;15.68;;;5.72;;
6735;SDS011;3405;50.576;12.364;2023-04-16T12:30:54;11.85;;;5.15;;
6735;SDS011;3405;50.576;12.364;2023-04-16T12:33:20;10.73;;;4.90;;
6735;SDS011;3405;50.576;12.364;2023-04-16T12:35:46;10.38;;;5.10;;
6735;SDS011;3405;50.576;12.364;2023-04-16T12:38:12;12.98;;;4.88;;
6735;SDS011;3405;50.576;12.364;2023-04-16T12:40:39;11.95;;;5.22;;
6735;SDS011;3405;50.576;12.364;2023-04-16T12:43:05;10.10;;;5.20;;
6735;SDS011;3405;50.576;12.364;2023-04-16T12:45:32;11.40;;;5.00;;
6735;SDS011;3405;50.576;12.364;2023-04-16T12:47:58;8.18;;;4.32;;
6735;SDS011;3405;50.576;12.364;2023-04-16T12:50:24;11.98;;;5.00;;
6735;SDS011;3405;50.576;12.364;2023-04-16T12:52:52;12.32;;;5.00;;
6735;SDS011;3405;50.576;12.364;2023-04-16T12:55:18;13.48;;;4.80;;
6735;SDS011;3405;50.576;12.364;2023-04-16T12:57:44;14.50;;;4.70;;
6735;SDS011;3405;50.576;12.364;2023-04-16T13:00:12;10.40;;;4.55;;
6735;SDS011;3405;50.576;12.364;2023-04-16T13:02:38;14.98;;;4.95;;
6735;SDS011;3405;50.576;12.364;2023-04-16T13:05:05;9.27;;;3.92;;
6735;SDS011;3405;50.576;12.364;2023-04-16T13:07:31;10.85;;;3.83;;
6735;SDS011;3405;50.576;12.364;2023-04-16T13:09:58;8.98;;;4.05;;
6735;SDS011;3405;50.576;12.364;2023-04-16T13:12:24;10.13;;;3.92;;
6735;SDS011;3405;50.576;12.364;2023-04-16T13:14:51;8.05;;;4.10;;
6735;SDS011;3405;50.576;12.364;2023-04-16T13:17:17;11.43;;;4.13;;
6735;SDS011;3405;50.576;12.364;2023-04-16T13:19:43;6.38;;;3.30;;
6735;SDS011;3405;50.576;12.364;2023-04-16T13:22:09;6.50;;;3.53;;
6735;SDS011;3405;50.576;12.364;2023-04-16T13:24:35;7.55;;;3.70;;
6735;SDS011;3405;50.576;12.364;2023-04-16T13:27:02;7.43;;;3.85;;
6735;SDS011;3405;50.576;12.364;2023-04-16T13:29:28;6.38;;;3.35;;
6735;SDS011;3405;50.576;12.364;2023-04-16T13:31:54;10.30;;;3.85;;
6735;SDS011;3405;50.576;12.364;2023-04-16T13:34:21;8.35;;;3.63;;
6735;SDS011;3405;50.576;12.364;2023-04-16T13:36:46;13.40;;;3.90;;
6735;SDS011;3405;50.576;12.364;2023-04-16T13:39:12;7.60;;;3.70;;
6735;SDS011;3405;50.576;12.364;2023-04-16T13:41:39;9.13;;;3.92;;
6735;SDS011;3405;50.576;12.364;2023-04-16T13:44:05;7.18;;;3.33;;
6735;SDS011;3405;50.576;12.364;2023-04-16T13:46:32;14.30;;;3.28;;
6735;SDS011;3405;50.576;12.364;2023-04-16T13:48:58;10.95;;;3.30;;
6735;SDS011;3405;50.576;12.364;2023-04-16T13:51:24;11.32;;;3.42;;
6735;SDS011;3405;50.576;12.364;2023-04-16T13:53:52;9.80;;;3.67;;
6735;SDS011;3405;50.576;12.364;2023-04-16T13:56:19;11.98;;;4.07;;
6735;SDS011;3405;50.576;12.364;2023-04-16T13:58:45;9.95;;;3.22;;
6735;SDS011;3405;50.576;12.364;2023-04-16T14:01:11;11.32;;;3.25;;
6735;SDS011;3405;50.576;12.364;2023-04-16T14:03:36;10.57;;;3.08;;
6735;SDS011;3405;50.576;12.364;2023-04-16T14:06:04;9.63;;;3.35;;
6735;SDS011;3405;50.576;12.364;2023-04-16T14:08:30;13.25;;;4.03;;
6735;SDS011;3405;50.576;12.364;2023-04-16T14:10:56;7.35;;;3.00;;
6735;SDS011;3405;50.576;12.364;2023-04-16T14:13:22;5.32;;;2.65;;
6735;SDS011;3405;50.576;12.364;2023-04-16T14:15:48;5.53;;;2.80;;
6735;SDS011;3405;50.576;12.364;2023-04-16T14:18:15;7.50;;;2.97;;
6735;SDS011;3405;50.576;12.364;2023-04-16T14:20:41;6.15;;;2.50;;
6735;SDS011;3405;50.576;12.364;2023-04-16T14:23:06;5.35;;;2.45;;
6735;SDS011;3405;50.576;12.364;2023-04-16T14:25:32;4.72;;;2.75;;
6735;SDS011;3405;50.576;12.364;2023-04-16T14:27:59;5.57;;;2.50;;
6735;SDS011;3405;50.576;12.364;2023-04-16T14:30:25;3.95;;;2.28;;
6735;SDS011;3405;50.576;12.364;2023-04-16T14:32:51;3.53;;;2.00;;
6735;SDS011;3405;50.576;12.364;2023-04-16T14:35:17;6.05;;;2.47;;
6735;SDS011;3405;50.576;12.364;2023-04-16T14:37:43;2.65;;;2.40;;
6735;SDS011;3405;50.576;12.364;2023-04-16T14:40:10;5.05;;;2.20;;
6735;SDS011;3405;50.576;12.364;2023-04-16T14:42:37;2.50;;;2.15;;
6735;SDS011;3405;50.576;12.364;2023-04-16T14:45:03;4.85;;;2.13;;
6735;SDS011;3405;50.576;12.364;2023-04-16T14:47:30;4.28;;;2.42;;
6735;SDS011;3405;50.576;12.364;2023-04-16T14:49:57;7.75;;;2.10;;